Wetterdaten: aktuell Mittwoch, 04.10.2023 08:20
Datum Zeit Temp. A. BodenTemp +5 BodenTemp -5 BodenTemp-10 BodenTemp-20 Feuchte A. BlattFeu 1 Bod.Feucht-5 Bod.Feuch-10 Bod.Feuch-20 Bod.Feuch-30 Luftdruck Regen Wind Richtung Richtung Sonnenschein T Regen ET UV Solar Taupunkt Windchill Windben
04.10.2023 08:20 9,2 C 9,4 C 12,8 C 12,8 C 13,3 C 96 % 15 lf 9 cb 40 cb 58 cb 53 cb 1027,6 hPa 0,0 l/m 0,0 m/s (0 Bft) SO 135 0 min 0 min 0,000 mm 0,0 UV-I 69 W/m 8,6 C 9,2 C 0,0 m/s (0 Bft)
04.10.2023 07:20 7,8 C 6,1 C 12,8 C 13,3 C 13,9 C 96 % 15 lf 8 cb 41 cb 59 cb 54 cb 1027,5 hPa 0,0 l/m 0,0 m/s (0 Bft) N-NW 329 0 min 0 min 0,000 mm 0,0 UV-I 0 W/m 7,2 C 7,8 C 0,0 m/s (0 Bft)
04.10.2023 06:20 10,1 C 7,2 C 13,3 C 13,3 C 13,9 C 94 % 15 lf 8 cb 42 cb 59 cb 53 cb 1027,1 hPa 0,0 l/m 0,5 m/s (1 Bft) S-SW 198 0 min 0 min 0,000 mm 0,0 UV-I 0 W/m 9,2 C 10,1 C 1,3 m/s (1 Bft)
04.10.2023 05:20 9,8 C 6,7 C 13,3 C 13,9 C 13,9 C 94 % 12 lf 8 cb 43 cb 60 cb 53 cb 1027,1 hPa 0,0 l/m 0,1 m/s (0 Bft) W-SW 246 0 min 0 min 0,000 mm 0,0 UV-I 0 W/m 8,9 C 9,8 C 0,4 m/s (1 Bft)
04.10.2023 04:20 9,8 C 6,7 C 13,9 C 13,9 C 14,4 C 93 % 6 lf 8 cb 44 cb 60 cb 54 cb 1027,0 hPa 0,0 l/m 0,1 m/s (0 Bft) S 175 0 min 0 min 0,000 mm 0,0 UV-I 0 W/m 8,7 C 9,8 C 0,4 m/s (1 Bft)
04.10.2023 03:20 10,8 C 7,8 C 13,9 C 13,9 C 14,4 C 90 % 3 lf 8 cb 45 cb 60 cb 53 cb 1026,9 hPa 0,0 l/m 0,2 m/s (0 Bft) N-NW 329 0 min 0 min 0,025 mm 0,0 UV-I 0 W/m 9,2 C 10,8 C 0,9 m/s (1 Bft)
04.10.2023 02:20 12,6 C 10,0 C 14,4 C 14,4 C 14,4 C 86 % 0 lf 8 cb 46 cb 61 cb 53 cb 1026,7 hPa 0,0 l/m 1,2 m/s (1 Bft) W-SW 250 0 min 0 min 0,026 mm 0,0 UV-I 0 W/m 10,3 C 12,6 C 2,7 m/s (2 Bft)
04.10.2023 01:20 13,1 C 10,6 C 14,4 C 14,4 C 15,0 C 87 % 0 lf 8 cb 47 cb 61 cb 53 cb 1026,5 hPa 0,0 l/m 0,8 m/s (1 Bft) S-SW 200 0 min 0 min 0,025 mm 0,0 UV-I 0 W/m 11,0 C 13,1 C 1,8 m/s (2 Bft)
04.10.2023 00:20 13,4 C 11,1 C 15,0 C 15,0 C 15,0 C 86 % 0 lf 9 cb 48 cb 62 cb 53 cb 1026,0 hPa 0,0 l/m 1,5 m/s (1 Bft) SW 218 0 min 0 min 0,000 mm 0,0 UV-I 0 W/m 11,1 C 13,4 C 3,1 m/s (2 Bft)
03.10.2023 23:20 13,8 C 11,1 C 15,0 C 15,0 C 15,0 C 88 % 0 lf 9 cb 49 cb 62 cb 53 cb 1025,4 hPa 0,0 l/m 1,6 m/s (1 Bft) W-SW 244 0 min 0 min 0,026 mm 0,0 UV-I 0 W/m 11,8 C 13,8 C 4,9 m/s (3 Bft)
03.10.2023 22:20 14,3 C 12,2 C 15,0 C 15,0 C 15,0 C 87 % 0 lf 11 cb 50 cb 62 cb 53 cb 1024,2 hPa 0,0 l/m 1,7 m/s (2 Bft) SW 224 0 min 0 min 0,025 mm 0,0 UV-I 0 W/m 12,2 C 14,3 C 4,5 m/s (3 Bft)
03.10.2023 21:20 14,4 C 12,2 C 15,6 C 15,6 C 15,0 C 87 % 1 lf 21 cb 52 cb 62 cb 53 cb 1023,0 hPa 0,0 l/m 1,2 m/s (1 Bft) W-NW 297 0 min 0 min 0,026 mm 0,0 UV-I 0 W/m 12,3 C 14,4 C 4,0 m/s (3 Bft)
03.10.2023 20:20 16,1 C 14,4 C 15,6 C 15,6 C 15,0 C 89 % 15 lf 56 cb 53 cb 62 cb 53 cb 1021,1 hPa 1,2 l/m 1,9 m/s (2 Bft) SW 234 0 min 25 min 0,025 mm 0,0 UV-I 0 W/m 14,3 C 16,1 C 6,3 m/s (4 Bft)
03.10.2023 19:20 17,7 C 15,6 C 16,1 C 15,6 C 15,0 C 88 % 15 lf 58 cb 56 cb 62 cb 54 cb 1018,7 hPa 2,0 l/m 2,7 m/s (2 Bft) SW 224 0 min 20 min 0,076 mm 0,0 UV-I 0 W/m 15,7 C 17,7 C 6,7 m/s (4 Bft)
03.10.2023 18:20 23,2 C 20,6 C 16,1 C 15,6 C 15,0 C 62 % 0 lf 63 cb 55 cb 62 cb 54 cb 1015,6 hPa 0,0 l/m 3,3 m/s (2 Bft) SW 226 0 min 0 min 0,102 mm 0,0 UV-I 21 W/m 15,5 C 23,2 C 7,1 m/s (4 Bft)
03.10.2023 17:20 23,8 C 21,7 C 16,1 C 15,6 C 14,4 C 63 % 0 lf 65 cb 55 cb 62 cb 53 cb 1015,3 hPa 0,0 l/m 2,1 m/s (2 Bft) W 270 20 min 0 min 0,178 mm 0,5 UV-I 85 W/m 16,3 C 23,8 C 5,8 m/s (4 Bft)
03.10.2023 16:20 24,9 C 23,9 C 16,1 C 15,6 C 14,4 C 58 % 0 lf 67 cb 54 cb 63 cb 54 cb 1015,0 hPa 0,0 l/m 2,8 m/s (2 Bft) W-SW 243 30 min 0 min 0,279 mm 1,0 UV-I 200 W/m 16,1 C 24,9 C 5,8 m/s (4 Bft)
03.10.2023 15:20 27,5 C 26,1 C 15,6 C 15,0 C 13,9 C 50 % 0 lf 70 cb 53 cb 63 cb 54 cb 1014,0 hPa 0,0 l/m 2,6 m/s (2 Bft) S-SW 196 55 min 0 min 0,406 mm 1,4 UV-I 212 W/m 16,1 C 27,5 C 7,1 m/s (4 Bft)
03.10.2023 14:20 28,3 C 27,8 C 15,0 C 14,4 C 13,9 C 51 % 0 lf 74 cb 53 cb 63 cb 54 cb 1014,3 hPa 0,0 l/m 2,3 m/s (2 Bft) S 177 50 min 0 min 0,407 mm 3,1 UV-I 634 W/m 17,2 C 28,3 C 4,5 m/s (3 Bft)
03.10.2023 13:20 27,2 C 26,7 C 14,4 C 13,9 C 13,3 C 55 % 0 lf 73 cb 53 cb 64 cb 54 cb 1014,6 hPa 0,0 l/m 2,3 m/s (2 Bft) S-SO 163 55 min 0 min 0,457 mm 3,7 UV-I 720 W/m 17,4 C 27,2 C 5,4 m/s (3 Bft)
03.10.2023 12:20 26,1 C 25,0 C 13,3 C 13,3 C 13,3 C 57 % 0 lf 72 cb 53 cb 64 cb 54 cb 1015,3 hPa 0,0 l/m 2,5 m/s (2 Bft) S-SW 206 60 min 0 min 0,432 mm 3,7 UV-I 744 W/m 16,9 C 26,1 C 6,7 m/s (4 Bft)
03.10.2023 11:20 24,2 C 20,6 C 12,8 C 12,8 C 13,3 C 57 % 0 lf 67 cb 53 cb 63 cb 54 cb 1015,7 hPa 0,0 l/m 2,2 m/s (2 Bft) S-SW 198 60 min 0 min 0,279 mm 2,7 UV-I 567 W/m 15,1 C 24,2 C 4,5 m/s (3 Bft)
03.10.2023 10:20 21,5 C 15,6 C 12,8 C 12,8 C 13,3 C 69 % 12 lf 62 cb 53 cb 64 cb 54 cb 1015,8 hPa 0,0 l/m 1,6 m/s (1 Bft) S 174 15 min 0 min 0,026 mm 1,5 UV-I 419 W/m 15,6 C 21,5 C 3,1 m/s (2 Bft)
03.10.2023 09:20 14,4 C 11,7 C 12,2 C 12,8 C 13,3 C 96 % 15 lf 59 cb 54 cb 63 cb 53 cb 1015,8 hPa 0,0 l/m 0,1 m/s (0 Bft) NO 46 0 min 0 min 0,025 mm 0,2 UV-I 50 W/m 13,8 C 14,4 C 0,4 m/s (1 Bft)
03.10.2023 09:00 14,0 C 11,7 C 12,2 C 12,8 C 13,3 C 97 % 15 lf 59 cb 54 cb 63 cb 53 cb 1015,7 hPa 0,0 l/m 0,0 m/s (0 Bft) O-NO 60 0 min 0 min 0,025 mm 0,0 UV-I 65 W/m 13,5 C 14,0 C 0,0 m/s (0 Bft)
_ Min-Zeit 07:05 06:50 09:00 09:00 09:00 14:25 10:25 00:40 07:35 07:50 09:00 15:20 - 09:00 - - - - - - - 07:00 07:00 09:00
Minimum _ 6,7 C 5,6 C 12,2 C 12,8 C 13,3 C 48 % 0 lf 8 cb 40 cb 58 cb 53 cb 1014,0 hPa - 0,0 m/s (0 Bft) - - - - - - - 5,9 C 6,8 C 0,0 m/s (0 Bft)
_ Max-Zeit 14:25 14:25 16:15 16:20 17:25 09:00 09:00 13:40 18:25 09:15 09:30 07:40 19:00 19:00 - - 13:46 18:55 13:00 13:15 12:20 12:55 14:30 18:45
Maximum _ 28,6 C 28,3 C 16,1 C 15,6 C 15,0 C 97 % 15 lf 75 cb 56 cb 64 cb 54 cb 1027,6 hPa 1,2 l/m 4,1 m/s
W-SW (3 Bft)
- - 6 min 5 min 0,457 mm 3,8 UV-I 744 W/m 17,6 C 28,5 C 10,3 m/s
W (5 Bft)
Durchschnitt _ 17,1 C 14,9 C 14,2 C 14,2 C 14,2 C 79 % 6 lf 40 cb 50 cb 62 cb 54 cb 1020,6 hPa #3,2 l/m 1,4 m/s (1 Bft) S-SW - #0 min. #0 min. #0,076 mm 0,0 UV-I 27 W/m 13,1 C 17,1 C 3,3 m/s (2 Bft)